Time;durP1;ratioP1;P1;durP2;ratioP2;P2;SDS_P1;SDS_P2;PMS_P1;PMS_P2;Temp;Humidity;BMP_temperature;BMP_pressure;BME280_temperature;BME280_humidity;BME280_pressure;Samples;Min_cycle;Max_cycle;Signal;HPM_P1;HPM_P2
2021/03/30 00:01:56;;;;;;;8.13;5.50;;;6.90;99.90;;;;;;5029704;28;20648;-72
2021/03/30 00:04:23;;;;;;;8.93;5.77;;;6.80;99.90;;;;;;5029312;28;20207;-72
2021/03/30 00:06:50;;;;;;;8.13;5.20;;;6.70;99.90;;;;;;5028495;28;20300;-72
2021/03/30 00:09:17;;;;;;;7.13;5.60;;;6.70;99.90;;;;;;5029522;28;20239;-72
2021/03/30 00:11:44;;;;;;;7.87;5.90;;;6.60;99.90;;;;;;5029143;28;20259;-73
2021/03/30 00:14:10;;;;;;;6.50;5.43;;;6.60;99.90;;;;;;5029573;28;20585;-72
2021/03/30 00:16:37;;;;;;;8.10;5.80;;;6.60;99.90;;;;;;5029303;28;20235;-73
2021/03/30 00:19:03;;;;;;;11.20;5.60;;;6.60;99.90;;;;;;5029455;28;20680;-73
2021/03/30 00:21:30;;;;;;;10.60;6.27;;;6.60;99.90;;;;;;5029792;28;20206;-72
2021/03/30 00:23:57;;;;;;;6.37;5.33;;;6.70;99.90;;;;;;5029679;28;20308;-72
2021/03/30 00:26:24;;;;;;;7.70;5.47;;;6.70;99.90;;;;;;5040507;27;20610;-72
2021/03/30 00:28:50;;;;;;;6.60;5.47;;;6.70;99.90;;;;;;5112899;28;20290;-73
2021/03/30 00:31:16;;;;;;;9.50;6.37;;;6.80;99.90;;;;;;5088935;28;20231;-73
2021/03/30 00:33:43;;;;;;;7.33;5.70;;;7.00;99.90;;;;;;5028515;28;20330;-73
2021/03/30 00:36:09;;;;;;;6.53;5.40;;;7.10;99.90;;;;;;5029246;28;20224;-72
2021/03/30 00:38:35;;;;;;;9.20;6.00;;;7.50;99.90;;;;;;5029234;28;20242;-72
2021/03/30 00:41:03;;;;;;;9.13;5.53;;;7.40;99.90;;;;;;5028352;28;20246;-73
2021/03/30 00:43:30;;;;;;;10.43;5.70;;;7.40;99.90;;;;;;5028335;28;20235;-72
2021/03/30 00:45:57;;;;;;;11.03;5.77;;;7.50;99.90;;;;;;5029477;28;20239;-72
2021/03/30 00:48:25;;;;;;;7.27;5.33;;;7.60;99.90;;;;;;5029068;28;20256;-73
2021/03/30 00:50:52;;;;;;;10.43;5.40;;;7.70;99.90;;;;;;5029088;28;20239;-72
2021/03/30 00:53:19;;;;;;;9.17;5.80;;;7.80;99.90;;;;;;5028728;28;20279;-72
2021/03/30 00:55:46;;;;;;;10.43;5.73;;;8.00;99.90;;;;;;5028704;28;20230;-72
2021/03/30 00:58:13;;;;;;;8.43;5.80;;;7.90;99.90;;;;;;5028756;28;20288;-73
2021/03/30 01:00:40;;;;;;;7.90;5.97;;;8.00;99.90;;;;;;5028976;28;20246;-73
2021/03/30 01:03:06;;;;;;;7.33;5.90;;;7.90;99.90;;;;;;5028217;28;20707;-73
2021/03/30 01:05:33;;;;;;;10.17;5.27;;;8.00;99.90;;;;;;5028054;28;20246;-73
2021/03/30 01:08:17;;;;;;;11.33;5.83;;;8.10;99.90;;;;;;5028954;28;20674;-72
2021/03/30 01:10:53;;;;;;;7.97;5.00;;;8.40;99.90;;;;;;5028710;28;20284;-72
2021/03/30 01:13:43;;;;;;;10.03;5.03;;;8.70;99.90;;;;;;5028696;28;20262;-73
2021/03/30 01:16:14;;;;;;;8.10;4.80;;;8.80;99.90;;;;;;5028658;28;20232;-72
2021/03/30 01:18:46;;;;;;;8.97;5.27;;;8.80;99.90;;;;;;5029087;28;20298;-73
2021/03/30 01:21:34;;;;;;;7.83;4.73;;;9.00;99.90;;;;;;5029116;28;20299;-73
2021/03/30 01:24:05;;;;;;;12.53;4.77;;;9.00;99.90;;;;;;5028303;28;20727;-72
2021/03/30 01:26:51;;;;;;;11.17;5.00;;;9.20;99.90;;;;;;5028282;28;20573;-72
2021/03/30 01:29:38;;;;;;;12.77;5.10;;;9.40;99.90;;;;;;5028448;28;20237;-73
2021/03/30 01:32:09;;;;;;;7.50;4.70;;;9.20;99.90;;;;;;5028004;28;20251;-73
2021/03/30 01:34:38;;;;;;;8.33;5.07;;;9.40;99.90;;;;;;5011877;28;20200;-73
2021/03/30 01:37:08;;;;;;;7.20;4.60;;;9.20;99.90;;;;;;5028559;28;20240;-72
2021/03/30 01:39:36;;;;;;;8.67;4.90;;;9.00;99.90;;;;;;5028495;28;20201;-73
2021/03/30 01:42:03;;;;;;;6.70;4.83;;;9.00;99.90;;;;;;5027956;28;20203;-73
2021/03/30 01:44:32;;;;;;;7.23;4.70;;;9.00;99.90;;;;;;5028176;28;20228;-73
2021/03/30 01:47:01;;;;;;;9.90;4.73;;;9.00;99.90;;;;;;5027052;28;20239;-73
2021/03/30 01:49:29;;;;;;;8.23;4.50;;;9.00;99.90;;;;;;5028525;28;20586;-73
2021/03/30 01:51:56;;;;;;;6.83;4.10;;;9.40;99.90;;;;;;5028392;28;20284;-73
2021/03/30 01:54:24;;;;;;;6.43;4.87;;;9.70;99.90;;;;;;5028314;28;20683;-73
2021/03/30 01:56:54;;;;;;;9.03;4.70;;;9.60;99.90;;;;;;5027743;28;20233;-73
2021/03/30 01:59:22;;;;;;;9.83;4.70;;;9.60;99.90;;;;;;5028224;28;20237;-73
2021/03/30 02:01:50;;;;;;;6.90;4.40;;;9.60;99.90;;;;;;5026564;28;20232;-73
2021/03/30 02:04:20;;;;;;;6.13;4.30;;;9.60;99.90;;;;;;5028400;28;20576;-73
2021/03/30 02:06:49;;;;;;;10.07;4.23;;;9.60;99.90;;;;;;5028025;28;20205;-73
2021/03/30 02:09:18;;;;;;;7.03;4.13;;;9.70;99.90;;;;;;5029812;28;20206;-73
2021/03/30 02:11:48;;;;;;;10.13;4.57;;;9.70;99.90;;;;;;5030977;28;20199;-72
2021/03/30 02:14:14;;;;;;;7.67;4.13;;;9.70;99.90;;;;;;5030712;28;20191;-73
2021/03/30 02:16:48;;;;;;;10.53;4.57;;;9.70;99.90;;;;;;5031043;28;20304;-72
2021/03/30 02:19:19;;;;;;;8.87;4.70;;;9.70;99.90;;;;;;5031824;28;20251;-73
2021/03/30 02:21:49;;;;;;;8.30;3.97;;;9.80;99.90;;;;;;5031266;28;20209;-73
2021/03/30 02:24:17;;;;;;;7.57;4.37;;;9.80;99.90;;;;;;5030973;28;20243;-73
2021/03/30 02:26:47;;;;;;;8.47;4.67;;;9.80;99.90;;;;;;5030801;28;20238;-73
2021/03/30 02:29:17;;;;;;;8.23;4.50;;;10.00;99.90;;;;;;5030032;28;20215;-73
2021/03/30 02:31:45;;;;;;;9.30;4.40;;;9.70;99.90;;;;;;5030734;28;20298;-73
2021/03/30 02:34:14;;;;;;;12.83;4.30;;;9.60;99.90;;;;;;5029426;28;20319;-73
2021/03/30 02:36:42;;;;;;;7.73;4.20;;;9.60;99.90;;;;;;5030879;28;20279;-73
2021/03/30 02:39:11;;;;;;;7.90;4.60;;;9.70;99.90;;;;;;5030979;28;20236;-73
2021/03/30 02:41:40;;;;;;;8.97;4.73;;;9.70;99.90;;;;;;5029850;28;20244;-73
2021/03/30 02:44:10;;;;;;;9.07;4.20;;;9.50;99.90;;;;;;5030742;28;20275;-73
2021/03/30 02:46:38;;;;;;;9.83;4.87;;;9.40;99.90;;;;;;5030933;28;20244;-73
2021/03/30 02:49:05;;;;;;;7.77;4.87;;;9.30;99.90;;;;;;5030408;28;20283;-73
2021/03/30 02:51:33;;;;;;;9.33;4.43;;;9.20;99.90;;;;;;5031378;28;20238;-73
2021/03/30 02:54:01;;;;;;;7.43;4.80;;;9.10;99.90;;;;;;5030239;28;20316;-73
2021/03/30 02:56:28;;;;;;;8.07;4.97;;;8.70;99.90;;;;;;5031176;28;20229;-72
2021/03/30 02:58:55;;;;;;;8.50;4.83;;;8.60;99.90;;;;;;5029171;28;20204;-73
2021/03/30 03:01:23;;;;;;;6.47;4.47;;;8.60;99.90;;;;;;5030737;28;20230;-72
2021/03/30 03:03:52;;;;;;;7.77;4.60;;;8.80;99.90;;;;;;5030273;28;20216;-72
2021/03/30 03:06:19;;;;;;;7.93;5.23;;;8.90;99.90;;;;;;5030304;28;20721;-74
2021/03/30 03:08:46;;;;;;;8.53;4.53;;;9.00;99.90;;;;;;5030759;28;20638;-74
2021/03/30 03:11:16;;;;;;;6.13;4.13;;;9.10;99.90;;;;;;5030605;28;20684;-74
2021/03/30 03:13:45;;;;;;;7.77;4.63;;;9.00;99.90;;;;;;5030343;28;20240;-74
2021/03/30 03:16:13;;;;;;;9.17;4.63;;;9.00;99.90;;;;;;5030633;28;20257;-74
2021/03/30 03:18:40;;;;;;;16.93;4.90;;;9.00;99.90;;;;;;5030057;28;20223;-74
2021/03/30 03:21:08;;;;;;;10.23;4.83;;;9.10;99.90;;;;;;5030509;28;20201;-74
2021/03/30 03:23:37;;;;;;;6.43;4.50;;;8.90;99.90;;;;;;5029938;28;20298;-74
2021/03/30 03:26:05;;;;;;;9.60;5.17;;;8.60;99.90;;;;;;5030151;28;20235;-74
2021/03/30 03:28:32;;;;;;;8.90;5.30;;;8.50;99.90;;;;;;5011041;28;20248;-74
2021/03/30 03:30:59;;;;;;;7.43;5.10;;;8.40;99.90;;;;;;5010896;28;20233;-74
2021/03/30 03:33:28;;;;;;;9.10;4.83;;;8.20;99.90;;;;;;5009009;28;20322;-74
2021/03/30 03:36:05;;;;;;;9.50;4.87;;;8.10;99.90;;;;;;5023554;28;20199;-74
2021/03/30 03:38:32;;;;;;;8.13;4.90;;;8.10;99.90;;;;;;5028844;28;20200;-74
2021/03/30 03:40:58;;;;;;;8.33;5.30;;;8.00;99.90;;;;;;5029578;28;20234;-74
2021/03/30 03:43:25;;;;;;;8.40;4.97;;;7.90;99.90;;;;;;5030170;28;20231;-74
2021/03/30 03:45:52;;;;;;;8.57;5.47;;;7.90;99.90;;;;;;5030378;28;20260;-74
2021/03/30 03:48:18;;;;;;;8.53;5.70;;;7.90;99.90;;;;;;5030059;28;20243;-74
2021/03/30 03:50:45;;;;;;;6.57;5.03;;;7.90;99.90;;;;;;5030446;28;20233;-74
2021/03/30 03:53:15;;;;;;;10.53;5.27;;;7.70;99.90;;;;;;5029501;28;20655;-74
2021/03/30 03:55:47;;;;;;;8.13;4.70;;;7.70;99.90;;;;;;5029750;28;20231;-74
2021/03/30 03:58:16;;;;;;;9.30;4.90;;;7.90;99.90;;;;;;5030132;28;20235;-74
2021/03/30 04:00:42;;;;;;;11.47;5.53;;;7.70;99.90;;;;;;5030219;28;20240;-74
2021/03/30 04:03:21;;;;;;;11.47;5.83;;;7.70;99.90;;;;;;5029881;28;20231;-74
2021/03/30 04:06:00;;;;;;;9.50;5.93;;;7.60;99.90;;;;;;5029976;28;20256;-74
2021/03/30 04:08:29;;;;;;;8.93;5.30;;;7.60;99.90;;;;;;5029646;28;20200;-74
2021/03/30 04:11:00;;;;;;;11.90;5.63;;;7.60;99.90;;;;;;5029583;28;20204;-74
2021/03/30 04:13:31;;;;;;;10.40;6.00;;;7.70;99.90;;;;;;5029996;28;20231;-74
2021/03/30 04:16:01;;;;;;;12.30;6.10;;;7.70;99.90;;;;;;5029414;28;20360;-74
2021/03/30 04:18:29;;;;;;;8.20;4.80;;;7.80;99.90;;;;;;5029360;28;20236;-74
2021/03/30 04:20:56;;;;;;;8.50;5.10;;;7.60;99.90;;;;;;5029320;28;20210;-74
2021/03/30 04:23:24;;;;;;;10.53;5.47;;;7.60;99.90;;;;;;5029240;28;20285;-74
2021/03/30 04:25:51;;;;;;;11.47;5.50;;;7.60;99.90;;;;;;5029297;28;20242;-74
2021/03/30 04:28:18;;;;;;;8.43;4.90;;;7.60;99.90;;;;;;5029046;28;20542;-74
2021/03/30 04:30:44;;;;;;;8.93;5.33;;;7.50;99.90;;;;;;5029209;28;20208;-74
2021/03/30 04:33:11;;;;;;;7.30;5.60;;;7.70;99.90;;;;;;5028939;28;20271;-74
2021/03/30 04:35:39;;;;;;;10.17;6.63;;;7.80;99.90;;;;;;5028530;28;20255;-74
2021/03/30 04:38:05;;;;;;;10.53;5.53;;;7.70;99.90;;;;;;5028828;28;20269;-75
2021/03/30 04:40:32;;;;;;;8.23;5.50;;;7.60;99.90;;;;;;5028422;28;20599;-74
2021/03/30 04:42:59;;;;;;;10.00;5.10;;;7.60;99.90;;;;;;5029270;28;20572;-74
2021/03/30 04:45:26;;;;;;;9.47;5.43;;;7.50;99.90;;;;;;5029161;28;20699;-74
2021/03/30 04:47:53;;;;;;;9.77;5.57;;;7.50;99.90;;;;;;5028553;28;20209;-74
2021/03/30 04:50:19;;;;;;;8.07;5.50;;;7.50;99.90;;;;;;5029091;28;20684;-74
2021/03/30 04:52:47;;;;;;;8.80;5.70;;;7.50;99.90;;;;;;5026797;28;20313;-74
2021/03/30 04:55:15;;;;;;;10.97;5.87;;;7.40;99.90;;;;;;5024147;28;20211;-74
2021/03/30 04:57:41;;;;;;;9.33;5.77;;;7.30;99.90;;;;;;5020581;28;20216;-74
2021/03/30 05:00:09;;;;;;;8.60;5.50;;;7.20;99.90;;;;;;5009622;28;20699;-74
2021/03/30 05:02:35;;;;;;;10.53;5.77;;;7.10;99.90;;;;;;5011609;28;20237;-74
2021/03/30 05:05:02;;;;;;;10.13;6.10;;;6.90;99.90;;;;;;5019107;28;20204;-75
2021/03/30 05:07:28;;;;;;;8.10;5.93;;;6.70;99.90;;;;;;5028152;28;20249;-75
2021/03/30 05:09:56;;;;;;;11.87;6.70;;;6.70;99.90;;;;;;5049113;27;20239;-73
2021/03/30 05:12:24;;;;;;;10.73;5.90;;;6.70;99.90;;;;;;5028407;28;20312;-73
2021/03/30 05:14:51;;;;;;;11.57;5.63;;;6.70;99.90;;;;;;5019948;28;20208;-74
2021/03/30 05:17:17;;;;;;;11.37;5.90;;;6.60;99.90;;;;;;5028795;28;20212;-74
2021/03/30 05:19:43;;;;;;;11.03;6.10;;;6.60;99.90;;;;;;5029427;28;20243;-74
2021/03/30 05:22:10;;;;;;;10.00;6.07;;;6.50;99.90;;;;;;5023040;28;20239;-74
2021/03/30 05:24:36;;;;;;;9.70;6.13;;;6.50;99.90;;;;;;5026475;28;20263;-74
2021/03/30 05:27:04;;;;;;;9.73;6.40;;;6.50;99.90;;;;;;5030848;28;20253;-74
2021/03/30 05:29:31;;;;;;;11.10;6.37;;;6.50;99.90;;;;;;5022031;28;20242;-75
2021/03/30 05:31:57;;;;;;;10.23;6.17;;;6.40;99.90;;;;;;5018078;28;20664;-76
2021/03/30 05:34:24;;;;;;;9.57;6.13;;;6.40;99.90;;;;;;5013007;28;20291;-75
2021/03/30 05:36:50;;;;;;;11.10;6.23;;;6.40;99.90;;;;;;5019579;28;20286;-75
2021/03/30 05:39:17;;;;;;;10.13;6.43;;;6.30;99.90;;;;;;5016131;28;20256;-75
2021/03/30 05:41:43;;;;;;;10.87;6.47;;;6.30;99.90;;;;;;5023029;28;20236;-75
2021/03/30 05:44:11;;;;;;;10.80;6.77;;;6.30;99.90;;;;;;5018744;28;20246;-75
2021/03/30 05:46:39;;;;;;;8.63;6.30;;;6.30;99.90;;;;;;5020357;27;20203;-76
2021/03/30 05:49:06;;;;;;;12.00;6.90;;;6.30;99.90;;;;;;5028886;27;20208;-75
2021/03/30 05:51:37;;;;;;;11.87;6.70;;;6.30;99.90;;;;;;5085050;27;20572;-75
2021/03/30 05:54:06;;;;;;;10.63;6.67;;;6.30;99.90;;;;;;5103489;27;20238;-75
2021/03/30 05:56:37;;;;;;;9.77;6.63;;;6.40;99.90;;;;;;5033172;27;20203;-75
2021/03/30 05:59:05;;;;;;;12.03;7.13;;;6.40;99.90;;;;;;5076419;27;20649;-75
2021/03/30 06:01:34;;;;;;;10.27;6.93;;;6.50;99.90;;;;;;5030279;28;20234;-75
2021/03/30 06:04:01;;;;;;;12.30;6.63;;;6.50;99.90;;;;;;5030684;28;20227;-74
2021/03/30 06:06:28;;;;;;;11.03;6.90;;;6.50;99.90;;;;;;5054843;27;20242;-75
2021/03/30 06:08:54;;;;;;;11.83;7.30;;;6.60;99.90;;;;;;5031109;28;20258;-75
2021/03/30 06:11:21;;;;;;;9.23;6.73;;;6.70;99.90;;;;;;5030292;28;20239;-75
2021/03/30 06:13:50;;;;;;;10.83;6.60;;;6.90;99.90;;;;;;5030967;28;20231;-76
2021/03/30 06:16:25;;;;;;;11.87;7.27;;;7.10;99.90;;;;;;5030612;28;20207;-72
2021/03/30 06:19:09;;;;;;;9.77;6.80;;;7.40;99.90;;;;;;5030068;28;20229;-73
2021/03/30 06:21:41;;;;;;;11.50;7.00;;;7.60;99.90;;;;;;5028355;28;20216;-75
2021/03/30 06:24:30;;;;;;;9.23;6.50;;;7.80;99.90;;;;;;5043286;27;20224;-74
2021/03/30 06:27:16;;;;;;;11.10;6.53;;;7.90;99.90;;;;;;5030371;28;20214;-74
2021/03/30 06:29:43;;;;;;;10.43;6.57;;;8.10;99.90;;;;;;5030970;28;20252;-73
2021/03/30 06:32:12;;;;;;;11.20;6.67;;;8.20;99.90;;;;;;5030538;28;20249;-73
2021/03/30 06:34:42;;;;;;;12.33;6.73;;;8.60;99.90;;;;;;5030379;28;20620;-74
2021/03/30 06:37:38;;;;;;;11.13;6.30;;;8.90;99.90;;;;;;5022667;28;20201;-75
2021/03/30 06:40:12;;;;;;;9.27;5.97;;;9.20;99.90;;;;;;5029292;28;20288;-76
2021/03/30 06:42:42;;;;;;;9.50;5.80;;;9.50;99.90;;;;;;5031459;27;20235;-76
2021/03/30 06:45:15;;;;;;;9.40;5.93;;;9.80;99.90;;;;;;5029250;28;20254;-76
2021/03/30 06:47:42;;;;;;;12.10;5.77;;;10.20;99.90;;;;;;5029532;28;20201;-75
2021/03/30 06:50:18;;;;;;;14.83;7.67;;;10.70;99.90;;;;;;5035498;27;20205;-74
2021/03/30 06:52:45;;;;;;;14.23;9.70;;;11.70;99.90;;;;;;5058680;27;20246;-76
2021/03/30 06:55:14;;;;;;;11.07;7.43;;;12.70;99.90;;;;;;5029661;27;20249;-76
2021/03/30 06:57:43;;;;;;;13.03;6.50;;;13.60;99.90;;;;;;5030572;28;20279;-76
2021/03/30 07:00:13;;;;;;;10.17;6.13;;;13.90;99.90;;;;;;5030239;28;20580;-76
2021/03/30 07:02:47;;;;;;;15.00;5.77;;;14.50;99.90;;;;;;5029760;28;20235;-76
2021/03/30 07:05:33;;;;;;;9.53;5.63;;;14.60;99.90;;;;;;5028826;28;20221;-74
2021/03/30 07:22:34;;;;;;;8.30;5.30;;;15.30;99.90;;;;;;5109395;27;20635;-82
2021/03/30 07:25:03;;;;;;;8.70;5.20;;;17.30;99.90;;;;;;5109476;28;20628;-82
2021/03/30 07:27:35;;;;;;;7.95;4.85;;;17.70;99.90;;;;;;5107567;28;20222;-83
2021/03/30 07:30:03;;;;;;;10.05;5.20;;;18.10;99.90;;;;;;5109049;28;20286;-83
2021/03/30 07:32:38;;;;;;;9.25;5.63;;;17.90;99.90;;;;;;5107891;28;20218;-83
2021/03/30 07:35:09;;;;;;;10.07;4.90;;;18.20;99.90;;;;;;5104357;28;20232;-82
2021/03/30 07:37:42;;;;;;;9.13;5.07;;;18.30;99.90;;;;;;5108273;28;20283;-82
2021/03/30 07:40:11;;;;;;;8.80;5.10;;;18.30;99.90;;;;;;5109302;28;20316;-83
2021/03/30 07:42:40;;;;;;;7.68;4.93;;;18.40;99.90;;;;;;5108505;28;20232;-83
2021/03/30 07:45:09;;;;;;;12.13;5.10;;;18.20;99.90;;;;;;5109279;28;20198;-83
2021/03/30 07:47:37;;;;;;;10.45;5.10;;;18.60;99.90;;;;;;5106212;28;20236;-83
2021/03/30 07:50:06;;;;;;;9.52;5.20;;;19.20;99.90;;;;;;5108487;28;20217;-83
2021/03/30 07:52:41;;;;;;;8.90;5.25;;;18.90;99.90;;;;;;5107386;28;20198;-83
2021/03/30 07:55:22;;;;;;;7.35;5.22;;;19.20;99.90;;;;;;5103318;28;20251;-83
2021/03/30 07:58:01;;;;;;;7.32;5.03;;;19.50;99.90;;;;;;5108376;28;20193;-84
2021/03/30 08:00:50;;;;;;;9.00;4.85;;;19.70;99.90;;;;;;5109007;28;20207;-83
2021/03/30 08:03:23;;;;;;;9.65;4.97;;;19.90;99.90;;;;;;5107692;28;20241;-85
2021/03/30 08:06:18;;;;;;;8.90;5.03;;;20.70;99.90;;;;;;5096453;28;20607;-84
2021/03/30 08:08:54;;;;;;;8.25;5.47;;;20.30;99.90;;;;;;5108087;28;20220;-85
2021/03/30 08:11:47;;;;;;;12.45;5.13;;;20.20;99.90;;;;;;5102131;28;20253;-86
2021/03/30 08:14:40;;;;;;;6.90;5.00;;;20.30;99.90;;;;;;5087134;28;20199;-85
2021/03/30 08:17:22;;;;;;;7.05;5.00;;;20.90;99.90;;;;;;5087620;28;20194;-87
2021/03/30 08:19:59;;;;;;;9.10;5.20;;;21.80;99.90;;;;;;5087051;28;20249;-85
2021/03/30 08:22:29;;;;;;;8.07;4.93;;;21.50;99.90;;;;;;5079554;28;20681;-85
2021/03/30 08:24:58;;;;;;;9.77;5.38;;;21.10;99.90;;;;;;5073493;28;20306;-86
2021/03/30 08:27:41;;;;;;;7.13;5.25;;;21.30;99.90;;;;;;5072687;28;20274;-85
2021/03/30 08:30:18;;;;;;;8.50;5.20;;;20.20;99.90;;;;;;5072632;28;20268;-85
2021/03/30 08:32:47;;;;;;;6.97;4.88;;;20.50;99.90;;;;;;5074099;28;20550;-85
2021/03/30 08:35:29;;;;;;;8.02;5.55;;;20.30;99.90;;;;;;5073628;28;20199;-85
2021/03/30 08:37:56;;;;;;;7.35;5.38;;;20.30;99.90;;;;;;5073289;28;20679;-85
2021/03/30 08:40:44;;;;;;;10.70;5.45;;;20.80;99.90;;;;;;5073885;28;20195;-85
2021/03/30 08:43:22;;;;;;;6.30;4.95;;;21.10;99.90;;;;;;5073074;28;20242;-85
2021/03/30 08:46:04;;;;;;;7.82;4.97;;;21.10;99.90;;;;;;5074227;28;20194;-86
2021/03/30 08:48:35;;;;;;;8.13;5.10;;;22.40;99.90;;;;;;5072623;28;20222;-86
2021/03/30 08:51:03;;;;;;;7.32;5.00;;;22.10;99.90;;;;;;5073079;28;20789;-86
2021/03/30 08:53:32;;;;;;;10.73;5.53;;;22.50;99.90;;;;;;5073893;28;20223;-87
2021/03/30 08:56:04;;;;;;;6.85;5.63;;;22.50;99.90;;;;;;5072820;28;20698;-86
2021/03/30 08:58:31;;;;;;;7.53;5.65;;;22.70;99.90;;;;;;5073488;28;20691;-86
2021/03/30 09:00:58;;;;;;;6.72;4.78;;;22.90;99.90;;;;;;5072774;28;20227;-85
2021/03/30 09:03:27;;;;;;;9.63;6.20;;;23.30;99.90;;;;;;5074927;28;20237;-86
2021/03/30 09:05:54;;;;;;;10.52;4.97;;;22.90;99.90;;;;;;5073985;28;20227;-86
2021/03/30 09:08:37;;;;;;;12.60;5.53;;;23.60;99.90;;;;;;5072471;28;20235;-86
2021/03/30 09:11:22;;;;;;;6.93;5.32;;;24.30;99.90;;;;;;5069671;28;20199;-86
2021/03/30 09:14:16;;;;;;;7.55;5.70;;;24.70;99.90;;;;;;5072857;28;20298;-86
2021/03/30 09:16:43;;;;;;;8.40;5.13;;;24.90;99.90;;;;;;5058886;28;20302;-87
2021/03/30 09:19:18;;;;;;;7.75;5.00;;;24.70;99.90;;;;;;5072689;28;20622;-85
2021/03/30 09:21:48;;;;;;;7.15;5.57;;;24.40;99.90;;;;;;5068590;28;20222;-87
2021/03/30 09:27:11;;;;;;;9.02;5.07;;;25.10;99.90;;;;;;5062553;28;20191;-87
2021/03/30 09:29:38;;;;;;;7.40;4.90;;;25.50;99.90;;;;;;5072719;28;20261;-87
2021/03/30 09:32:06;;;;;;;6.88;4.88;;;25.50;99.90;;;;;;5073063;28;20202;-87
2021/03/30 09:34:33;;;;;;;7.38;5.00;;;25.70;99.90;;;;;;5071142;28;20581;-86
2021/03/30 09:37:00;;;;;;;8.90;4.85;;;25.80;99.90;;;;;;5071892;28;20285;-86
2021/03/30 09:39:28;;;;;;;7.88;4.60;;;26.10;99.90;;;;;;5072317;28;20273;-88
2021/03/30 09:41:57;;;;;;;7.63;4.50;;;26.20;99.90;;;;;;5072458;28;20243;-86
2021/03/30 09:44:25;;;;;;;6.55;4.05;;;26.40;99.90;;;;;;5069553;28;20286;-87
2021/03/30 09:46:54;;;;;;;6.22;4.13;;;27.20;96.70;;;;;;5072623;28;20214;-87
2021/03/30 09:49:23;;;;;;;9.65;4.97;;;26.80;95.80;;;;;;5073242;28;20198;-87
2021/03/30 09:51:50;;;;;;;9.13;5.05;;;26.20;95.80;;;;;;5072122;28;20221;-86
2021/03/30 09:54:26;;;;;;;6.47;4.75;;;26.10;94.90;;;;;;5072991;28;20238;-86
2021/03/30 09:57:00;;;;;;;8.38;4.85;;;26.60;98.60;;;;;;5072390;28;20205;-86
2021/03/30 09:59:28;;;;;;;7.38;4.45;;;26.80;94.60;;;;;;5073201;28;20239;-86
2021/03/30 10:01:55;;;;;;;5.75;3.80;;;26.60;94.00;;;;;;5072191;28;20703;-88
2021/03/30 10:04:24;;;;;;;8.38;4.50;;;27.10;92.40;;;;;;5073261;28;20278;-87
2021/03/30 10:06:51;;;;;;;10.00;3.78;;;25.60;92.00;;;;;;5072675;28;20191;-88
2021/03/30 10:09:18;;;;;;;9.55;3.90;;;25.30;93.60;;;;;;5072916;28;20255;-87
2021/03/30 10:11:49;;;;;;;4.63;3.50;;;25.80;92.30;;;;;;5072354;28;20191;-87
2021/03/30 10:14:27;;;;;;;6.90;3.70;;;25.40;92.90;;;;;;5072634;28;20573;-89
2021/03/30 10:16:58;;;;;;;7.40;3.70;;;24.50;92.90;;;;;;5072134;28;20584;-86
2021/03/30 10:19:25;;;;;;;5.95;3.45;;;25.90;93.50;;;;;;5072723;28;20226;-87
2021/03/30 10:21:53;;;;;;;4.80;3.50;;;26.70;90.90;;;;;;5071737;28;20266;-87
2021/03/30 10:24:20;;;;;;;6.20;3.80;;;27.30;90.70;;;;;;5072190;28;20203;-86
2021/03/30 10:27:04;;;;;;;4.13;3.30;;;27.20;91.70;;;;;;5071194;28;20191;-87
2021/03/30 10:29:37;;;;;;;10.95;4.15;;;26.70;90.00;;;;;;5070791;28;20191;-88
2021/03/30 10:32:13;;;;;;;8.13;4.15;;;25.70;91.60;;;;;;5071150;28;20269;-85
2021/03/30 10:34:40;;;;;;;6.28;3.45;;;26.50;92.80;;;;;;5071932;28;20248;-85
2021/03/30 10:37:09;;;;;;;6.43;3.40;;;27.00;91.60;;;;;;5071604;28;20239;-87
2021/03/30 10:39:38;;;;;;;8.60;3.53;;;27.70;91.40;;;;;;5071936;28;20195;-88
2021/03/30 10:42:07;;;;;;;5.20;3.83;;;26.70;90.30;;;;;;5072542;28;20730;-86
2021/03/30 10:44:36;;;;;;;5.55;3.55;;;25.20;91.20;;;;;;5071867;28;20255;-86
2021/03/30 10:47:15;;;;;;;5.35;3.25;;;25.10;92.40;;;;;;5072271;28;20234;-87
2021/03/30 10:49:42;;;;;;;7.40;3.63;;;26.30;93.60;;;;;;5054846;28;20672;-87
2021/03/30 10:52:15;;;;;;;5.95;3.22;;;26.20;92.30;;;;;;5072421;28;20211;-87
2021/03/30 10:54:41;;;;;;;6.13;3.95;;;26.30;91.60;;;;;;5072839;28;20199;-87
2021/03/30 10:57:12;;;;;;;5.13;3.08;;;24.50;92.90;;;;;;5072688;28;20225;-87
2021/03/30 10:59:39;;;;;;;7.25;3.20;;;24.70;92.70;;;;;;5072461;28;20198;-87
2021/03/30 11:02:06;;;;;;;5.68;3.35;;;24.40;92.00;;;;;;5072174;28;20258;-86
2021/03/30 11:04:33;;;;;;;4.15;2.85;;;23.80;92.90;;;;;;5071105;28;20207;-87
2021/03/30 11:07:00;;;;;;;6.05;2.97;;;24.50;92.80;;;;;;5071171;28;20279;-87
2021/03/30 11:09:26;;;;;;;4.00;2.95;;;25.00;92.30;;;;;;5071594;28;20203;-87
2021/03/30 11:11:54;;;;;;;8.40;3.33;;;25.70;92.20;;;;;;5071526;28;20222;-87
2021/03/30 11:14:21;;;;;;;5.82;3.30;;;26.30;91.20;;;;;;5071488;28;20227;-87
2021/03/30 11:16:52;;;;;;;6.45;3.47;;;26.20;93.10;;;;;;5071100;28;20231;-86
2021/03/30 11:19:19;;;;;;;4.25;3.85;;;25.80;91.70;;;;;;5072899;28;20220;-85
2021/03/30 11:21:46;;;;;;;5.30;3.70;;;25.30;93.10;;;;;;5070204;28;20234;-87
2021/03/30 11:24:18;;;;;;;5.47;3.55;;;25.40;93.90;;;;;;5071521;28;20238;-85
2021/03/30 11:26:47;;;;;;;8.02;3.40;;;25.60;93.80;;;;;;5071153;28;20199;-87
2021/03/30 11:29:19;;;;;;;6.70;3.80;;;25.90;93.70;;;;;;5071812;28;20248;-87
2021/03/30 11:34:36;;;;;;;5.72;3.80;;;24.70;95.10;;;;;;5063128;28;20671;-87
2021/03/30 11:37:13;;;;;;;6.70;3.67;;;25.90;94.70;;;;;;5059739;28;20261;-86
2021/03/30 11:39:40;;;;;;;4.05;3.58;;;27.00;93.30;;;;;;5068321;28;20210;-86
2021/03/30 11:42:07;;;;;;;5.25;3.72;;;26.10;93.70;;;;;;5070090;28;20261;-86
2021/03/30 11:44:33;;;;;;;6.35;3.45;;;25.50;94.10;;;;;;5065555;28;20679;-85
2021/03/30 11:47:00;;;;;;;6.10;3.45;;;25.70;95.40;;;;;;5067741;28;20247;-85
2021/03/30 11:49:27;;;;;;;5.72;3.90;;;27.00;94.90;;;;;;5069328;28;20198;-85
2021/03/30 11:51:54;;;;;;;5.07;3.42;;;26.70;93.60;;;;;;5068388;28;20692;-85
2021/03/30 11:54:22;;;;;;;5.13;3.58;;;27.20;95.30;;;;;;5058889;28;20196;-78
2021/03/30 11:56:49;;;;;;;5.53;3.80;;;26.90;92.90;;;;;;5059484;28;20211;-79
2021/03/30 11:59:16;;;;;;;6.63;3.53;;;26.80;93.80;;;;;;5062499;28;20199;-77
2021/03/30 12:01:42;;;;;;;4.95;3.53;;;27.40;92.90;;;;;;5063478;28;20254;-79
2021/03/30 12:04:09;;;;;;;6.75;3.90;;;26.60;93.80;;;;;;5069610;28;20261;-79
2021/03/30 12:06:36;;;;;;;7.10;4.32;;;26.30;96.40;;;;;;5060032;28;20714;-81
2021/03/30 12:09:03;;;;;;;7.20;3.90;;;26.20;94.70;;;;;;5065519;28;20742;-78
2021/03/30 12:11:33;;;;;;;8.63;3.70;;;26.20;95.30;;;;;;5066048;28;20191;-78
2021/03/30 12:13:59;;;;;;;6.72;4.00;;;27.30;94.20;;;;;;5071936;28;20682;-78
2021/03/30 12:16:27;;;;;;;8.82;3.92;;;26.60;94.80;;;;;;5071714;28;20207;-79
2021/03/30 12:18:53;;;;;;;7.03;4.00;;;26.60;95.70;;;;;;5072679;28;20242;-78
2021/03/30 12:21:20;;;;;;;8.82;4.30;;;26.70;95.20;;;;;;5072759;28;20699;-79
2021/03/30 12:23:47;;;;;;;5.07;3.80;;;25.40;95.60;;;;;;5072205;28;20219;-78
2021/03/30 12:26:13;;;;;;;6.40;3.90;;;25.30;97.40;;;;;;5073053;28;20695;-78
2021/03/30 12:28:41;;;;;;;6.63;3.72;;;26.50;96.50;;;;;;5072951;28;20227;-78
2021/03/30 12:31:08;;;;;;;6.28;3.50;;;27.00;92.80;;;;;;5072505;28;20227;-78
2021/03/30 12:33:34;;;;;;;4.95;3.60;;;27.00;93.10;;;;;;5072706;28;20191;-78
2021/03/30 12:36:01;;;;;;;5.85;3.30;;;25.60;93.60;;;;;;5073945;28;20699;-78
2021/03/30 12:38:27;;;;;;;5.15;3.15;;;27.00;93.60;;;;;;5073082;28;20242;-79
2021/03/30 12:40:54;;;;;;;6.03;3.08;;;26.70;92.70;;;;;;5072709;28;20298;-78
2021/03/30 12:43:20;;;;;;;9.55;3.20;;;26.20;91.60;;;;;;5072375;28;20393;-78
2021/03/30 12:45:47;;;;;;;5.47;3.33;;;26.30;92.50;;;;;;5071940;28;20199;-78
2021/03/30 12:48:14;;;;;;;5.75;3.25;;;26.50;94.10;;;;;;5066579;28;20214;-79
2021/03/30 12:50:41;;;;;;;5.93;3.72;;;26.60;92.70;;;;;;5067060;28;20190;-78
2021/03/30 12:53:09;;;;;;;5.05;3.10;;;25.40;93.50;;;;;;5072422;28;20199;-78
2021/03/30 12:55:35;;;;;;;5.00;3.40;;;25.40;93.80;;;;;;5070500;28;20210;-78
2021/03/30 12:58:02;;;;;;;5.05;3.47;;;25.70;92.20;;;;;;5072398;28;20234;-79
2021/03/30 13:00:29;;;;;;;8.32;3.40;;;26.10;92.30;;;;;;5073002;28;20226;-78
2021/03/30 13:02:56;;;;;;;5.70;3.25;;;26.10;93.10;;;;;;5072552;28;20206;-80
2021/03/30 13:05:23;;;;;;;5.82;3.50;;;26.30;91.80;;;;;;5072895;28;20230;-78
2021/03/30 13:07:49;;;;;;;6.00;3.50;;;25.60;92.90;;;;;;5072998;28;20191;-78
2021/03/30 13:10:16;;;;;;;7.43;3.67;;;25.60;92.20;;;;;;5073261;28;20687;-77
2021/03/30 13:12:42;;;;;;;6.25;3.53;;;25.00;91.90;;;;;;5072537;28;20268;-78
2021/03/30 13:15:11;;;;;;;5.78;3.33;;;24.60;91.70;;;;;;5072720;28;20291;-78
2021/03/30 13:17:37;;;;;;;5.88;3.35;;;24.80;93.00;;;;;;5073118;28;20278;-77
2021/03/30 13:20:06;;;;;;;9.98;3.65;;;24.80;93.10;;;;;;5072560;28;20612;-77
2021/03/30 13:22:32;;;;;;;6.78;3.83;;;24.30;94.40;;;;;;5073119;28;20254;-77
2021/03/30 13:25:01;;;;;;;5.45;3.42;;;24.60;94.40;;;;;;5066715;28;20218;-77